Time;durP1;ratioP1;P1;durP2;ratioP2;P2;SDS_P1;SDS_P2;PMS_P1;PMS_P2;Temp;Humidity;BMP_temperature;BMP_pressure;BME280_temperature;BME280_humidity;BME280_pressure;Samples;Min_cycle;Max_cycle;Signal;HPM_P1;HPM_P2
2023/07/23 00:00:33;;;;;;;;;;;;;;;5.58;100.00;99288.41;4995843;28;19929;-83
2023/07/23 00:03:02;;;;;;;;;;;;;;;5.62;100.00;99283.94;4997356;28;20001;-84
2023/07/23 00:05:27;;;;;;;;;;;;;;;5.58;100.00;99285.78;5004747;28;19950;-85
2023/07/23 00:07:59;;;;;;;;;;;;;;;5.58;100.00;99283.16;5012556;28;19948;-83
2023/07/23 00:10:25;;;;;;;;;;;;;;;5.58;100.00;99280.50;5020545;28;19917;-84
2023/07/23 00:12:51;;;;;;;;;;;;;;;5.54;100.00;99276.28;5013460;28;19924;-85
2023/07/23 00:15:17;;;;;;;;;;;;;;;5.63;100.00;99277.75;5005767;28;19925;-82
2023/07/23 00:17:43;;;;;;;;;;;;;;;5.66;100.00;99276.81;5007019;28;19936;-84
2023/07/23 00:20:09;;;;;;;;;;;;;;;5.74;100.00;99273.00;5004026;28;20361;-83
2023/07/23 00:22:35;;;;;;;;;;;;;;;5.60;100.00;99269.97;5019089;28;20409;-85
2023/07/23 00:25:00;;;;;;;;;;;;;;;5.58;100.00;99269.16;4996744;28;19964;-88
2023/07/23 00:27:25;;;;;;;;;;;;;;;5.55;100.00;99270.13;5020857;28;20000;-87
2023/07/23 00:29:51;;;;;;;;;;;;;;;5.56;100.00;99266.56;4998840;28;19921;-88
2023/07/23 00:32:17;;;;;;;;;;;;;;;5.56;100.00;99266.56;5021790;28;19926;-87
2023/07/23 00:34:42;;;;;;;;;;;;;;;10.39;100.00;99252.50;4998050;28;19932;-83
2023/07/23 00:37:08;;;;;;;;;;;;;;;6.34;100.00;99247.44;4999477;28;19921;-88
2023/07/23 00:39:33;;;;;;;;;;;;;;;5.89;100.00;99249.78;4998426;28;19925;-84
2023/07/23 00:41:58;;;;;;;;;;;;;;;5.77;100.00;99256.31;5017730;28;19925;-87
2023/07/23 00:44:23;;;;;;;;;;;;;;;5.71;100.00;99256.50;4994785;28;19922;-88
2023/07/23 00:46:49;;;;;;;;;;;;;;;5.64;100.00;99258.44;5023110;28;19921;-87
2023/07/23 00:49:15;;;;;;;;;;;;;;;5.64;100.00;99255.81;5010874;28;20004;-82
2023/07/23 00:51:52;;;;;;;;;;;;;;;5.58;100.00;99248.97;4998904;28;20292;-87
2023/07/23 00:54:23;;;;;;;;;;;;;;;5.58;100.00;99248.97;5020964;28;19960;-87
2023/07/23 00:56:48;;;;;;;;;;;;;;;5.59;100.00;99244.59;5020074;28;19961;-84
2023/07/23 00:59:14;;;;;;;;;;;;;;;5.53;100.00;99248.25;5022253;28;20335;-87
2023/07/23 01:01:39;;;;;;;;;;;;;;;5.55;100.00;99243.84;5016571;28;20819;-84
2023/07/23 01:04:05;;;;;;;;;;;;;;;5.57;100.00;99246.44;4995884;28;20292;-85
2023/07/23 01:06:32;;;;;;;;;;;;;;;5.52;100.00;99238.69;5022008;28;20361;-84
2023/07/23 01:08:57;;;;;;;;;;;;;;;5.55;100.00;99233.34;4993128;28;19965;-87
2023/07/23 01:11:23;;;;;;;;;;;;;;;5.50;100.00;99224.72;4991680;28;19952;-85
2023/07/23 01:13:51;;;;;;;;;;;;;;;5.54;100.00;99236.84;5001346;28;19972;-84
2023/07/23 01:16:16;;;;;;;;;;;;;;;5.50;100.00;99232.59;5000651;28;19918;-86
2023/07/23 01:18:42;;;;;;;;;;;;;;;5.51;100.00;99231.69;5021821;28;19973;-82
2023/07/23 01:21:09;;;;;;;;;;;;;;;5.48;100.00;99237.03;5022791;28;20436;-83
2023/07/23 01:23:35;;;;;;;;;;;;;;;5.48;100.00;99230.94;5017299;28;19921;-82
2023/07/23 01:26:00;;;;;;;;;;;;;;;5.49;100.00;99233.53;5022999;28;19921;-83
2023/07/23 01:28:25;;;;;;;;;;;;;;;5.47;100.00;99222.16;5012650;28;19972;-83
2023/07/23 01:30:54;;;;;;;;;;;;;;;5.49;100.00;99225.63;4999194;28;19940;-84
2023/07/23 01:33:20;;;;;;;;;;;;;;;5.51;100.00;99221.19;5015312;28;19956;-83
2023/07/23 01:35:45;;;;;;;;;;;;;;;5.49;100.00;99223.00;4997900;28;19956;-83
2023/07/23 01:38:11;;;;;;;;;;;;;;;5.46;100.00;99223.09;5023255;28;19921;-83
2023/07/23 01:40:36;;;;;;;;;;;;;;;5.45;100.00;99221.38;4951203;28;1827303;-83
2023/07/23 01:43:02;;;;;;;;;;;;;;;5.40;100.00;99218.03;4999553;28;20392;-83
2023/07/23 01:45:28;;;;;;;;;;;;;;;5.38;100.00;99219.84;5011690;28;19917;-83
2023/07/23 01:47:53;;;;;;;;;;;;;;;5.42;100.00;99219.69;5009280;28;19983;-83
2023/07/23 01:50:18;;;;;;;;;;;;;;;5.43;100.00;99226.66;5018221;28;19921;-84
2023/07/23 01:52:43;;;;;;;;;;;;;;;5.43;100.00;99221.41;5021285;28;19925;-85
2023/07/23 01:55:08;;;;;;;;;;;;;;;5.44;100.00;99217.00;4997718;28;19922;-82
2023/07/23 01:57:34;;;;;;;;;;;;;;;5.39;100.00;99217.19;5006668;28;20355;-84
2023/07/23 01:59:59;;;;;;;;;;;;;;;5.40;100.00;99224.13;5005464;28;20026;-83
2023/07/23 02:02:24;;;;;;;;;;;;;;;5.39;100.00;99217.19;4999093;28;19928;-91
2023/07/23 02:04:50;;;;;;;;;;;;;;;5.37;100.00;99215.50;5004820;28;19924;-86
2023/07/23 02:07:15;;;;;;;;;;;;;;;5.38;100.00;99219.84;5022649;28;19931;-87
2023/07/23 02:09:40;;;;;;;;;;;;;;;5.40;100.00;99223.28;4997939;28;19921;-85
2023/07/23 02:12:05;;;;;;;;;;;;;;;5.38;100.00;99220.69;4998149;28;20016;-86
2023/07/23 08:38:04;;;;;;;;;;;;;;;8.16;100.00;99218.63;5454498;23;19930;-83
2023/07/23 08:40:34;;;;;;;;;;;;;;;8.25;100.00;99220.00;5005590;28;20264;-83
2023/07/23 08:42:59;;;;;;;;;;;;;;;8.30;100.00;99218.06;5005119;28;19928;-83
2023/07/23 08:45:28;;;;;;;;;;;;;;;8.36;100.00;99225.72;4987771;28;19996;-83
2023/07/23 08:48:09;;;;;;;;;;;;;;;8.34;100.00;99222.25;5004413;28;19968;-84
2023/07/23 08:50:35;;;;;;;;;;;;;;;8.31;100.00;99231.19;5004806;28;19984;-82
2023/07/23 08:53:01;;;;;;;;;;;;;;;8.31;100.00;99219.75;5004151;28;19963;-83
2023/07/23 08:55:27;;;;;;;;;;;;;;;8.34;100.00;99227.53;5005400;28;19968;-84
2023/07/23 08:57:52;;;;;;;;;;;;;;;8.29;100.00;99221.59;5004084;28;19960;-85
2023/07/23 09:00:17;;;;;;;;;;;;;;;8.31;100.00;99220.63;5004909;28;19918;-84
2023/07/23 09:02:43;;;;;;;;;;;;;;;8.29;100.00;99218.97;5005491;28;19928;-82
2023/07/23 09:05:08;;;;;;;;;;;;;;;8.26;100.00;99222.56;5004743;28;20364;-83
2023/07/23 09:07:34;;;;;;;;;;;;;;;8.28;100.00;99222.50;5002711;28;19922;-82
2023/07/23 09:10:02;;;;;;;;;;;;;;;8.29;100.00;99216.31;5004939;28;20373;-85
2023/07/23 09:12:29;;;;;;;;;;;;;;;8.32;100.00;99211.75;5005013;28;19918;-82
2023/07/23 09:14:54;;;;;;;;;;;;;;;8.30;100.00;99213.63;5003748;28;19918;-82
2023/07/23 09:17:20;;;;;;;;;;;;;;;8.28;100.00;99222.50;5004856;28;19917;-83
2023/07/23 09:19:45;;;;;;;;;;;;;;;8.33;100.00;99217.91;5005156;28;20015;-83
2023/07/23 09:22:10;;;;;;;;;;;;;;;8.32;100.00;99213.56;5003207;28;19940;-82
2023/07/23 09:24:36;;;;;;;;;;;;;;;8.33;100.00;99207.38;5004381;28;19979;-83
2023/07/23 09:27:02;;;;;;;;;;;;;;;8.33;100.00;99208.22;4986998;28;19925;-83
2023/07/23 09:29:35;;;;;;;;;;;;;;;8.36;100.00;99217.78;5004691;28;19928;-82
2023/07/23 09:32:00;;;;;;;;;;;;;;;8.43;100.00;99223.66;5004267;28;19922;-82
2023/07/23 09:34:25;;;;;;;;;;;;;;;8.45;100.00;99214.75;5005076;28;19924;-84
2023/07/23 09:36:56;;;;;;;;;;;;;;;8.51;100.00;99211.84;4985505;28;20024;-82
2023/07/23 09:39:27;;;;;;;;;;;;;;;7.49;100.00;99225.72;5004567;28;20024;-81
2023/07/23 09:41:54;;;;;;;;;;;;;;;7.03;100.00;99224.84;5004170;28;19925;-83
2023/07/23 09:44:23;;;;;;;;;;;;;;;6.87;100.00;99217.47;5004062;28;20020;-83
2023/07/23 09:46:48;;;;;;;;;;;;;;;6.65;100.00;99217.44;5003485;28;19949;-85
2023/07/23 09:49:13;;;;;;;;;;;;;;;6.51;100.00;99219.66;5004155;28;19917;-83
2023/07/23 09:51:49;;;;;;;;;;;;;;;6.54;100.00;99214.28;5003378;28;20317;-83
2023/07/23 09:54:15;;;;;;;;;;;;;;;6.46;100.00;99209.31;5003922;28;19917;-84
2023/07/23 09:56:42;;;;;;;;;;;;;;;6.48;100.00;99215.38;5004353;28;19960;-86
2023/07/23 09:59:09;;;;;;;;;;;;;;;6.43;100.00;99216.44;5002871;28;19918;-85
2023/07/23 10:01:35;;;;;;;;;;;;;;;6.35;100.00;99204.44;5003971;28;19952;-86
2023/07/23 10:04:01;;;;;;;;;;;;;;;6.27;100.00;99217.00;5004117;28;19925;-87
2023/07/23 10:06:27;;;;;;;;;;;;;;;6.30;100.00;99219.53;5003258;28;19976;-84
2023/07/23 12:52:47;;;;;;;;;;;;;;;5.38;100.00;99127.91;5361727;22;19948;-85
2023/07/23 12:55:12;;;;;;;;;;;;;;;5.45;100.00;99121.50;5015167;28;20384;-86
2023/07/23 12:57:38;;;;;;;;;;;;;;;5.37;100.00;99123.53;4996155;28;20287;-85
2023/07/23 13:00:03;;;;;;;;;;;;;;;5.37;100.00;99123.53;4996699;28;19917;-86
2023/07/23 13:02:29;;;;;;;;;;;;;;;5.43;100.00;99132.06;5014808;28;19924;-86
2023/07/23 13:04:54;;;;;;;;;;;;;;;5.45;100.00;99119.75;5014958;28;19918;-85
2023/07/23 13:07:19;;;;;;;;;;;;;;;5.48;100.00;99136.34;5013590;28;19914;-86
2023/07/23 13:09:44;;;;;;;;;;;;;;;5.51;100.00;99134.47;5014669;28;20418;-83
2023/07/23 13:12:10;;;;;;;;;;;;;;;5.57;100.00;99128.16;4997480;28;19922;-88
2023/07/23 13:14:38;;;;;;;;;;;;;;;5.57;100.00;99118.50;4996862;28;20343;-88
2023/07/23 13:17:04;;;;;;;;;;;;;;;5.50;100.00;99111.72;5013104;28;19921;-89
2023/07/23 13:19:29;;;;;;;;;;;;;;;5.49;100.00;99124.91;5008417;28;19917;-88
2023/07/23 13:21:54;;;;;;;;;;;;;;;5.53;100.00;99118.66;4995442;28;20028;-87
2023/07/23 13:24:19;;;;;;;;;;;;;;;5.56;100.00;99111.50;5014618;28;20364;-88
2023/07/23 13:29:30;;;;;;;;;;;;;;;5.58;100.00;99109.69;5240210;23;19926;-85
2023/07/23 13:31:56;;;;;;;;;;;;;;;5.61;100.00;99112.22;5014242;28;19917;-85
2023/07/23 13:34:21;;;;;;;;;;;;;;;5.59;100.00;99129.81;4996804;28;19924;-88
2023/07/23 13:36:46;;;;;;;;;;;;;;;5.60;100.00;99114.88;4995555;28;19922;-88
2023/07/23 13:39:12;;;;;;;;;;;;;;;5.64;100.00;99106.84;4996912;28;20388;-89
2023/07/23 13:41:37;;;;;;;;;;;;;;;5.69;100.00;99119.00;4996449;28;19925;-85
2023/07/23 13:47:05;;;;;;;;;;;;;;;5.66;100.00;99116.47;5014239;28;19948;-89
2023/07/23 13:49:30;;;;;;;;;;;;;;;5.67;100.00;99126.94;5014149;28;19918;-89
2023/07/23 13:51:57;;;;;;;;;;;;;;;5.72;100.00;99129.41;5012276;28;19933;-89
2023/07/23 13:54:22;;;;;;;;;;;;;;;5.62;100.00;99128.88;5012486;28;19941;-86
2023/07/23 13:56:47;;;;;;;;;;;;;;;5.69;100.00;99126.88;5013839;28;19918;-89
2023/07/23 13:59:13;;;;;;;;;;;;;;;5.69;100.00;99145.28;4996391;28;20402;-88
2023/07/23 14:01:38;;;;;;;;;;;;;;;5.64;100.00;99130.50;5013822;28;20280;-89
2023/07/23 14:04:03;;;;;;;;;;;;;;;5.66;100.00;99145.38;4996022;28;20327;-88
2023/07/23 14:06:29;;;;;;;;;;;;;;;5.60;100.00;99142.06;4994684;28;20339;-90
2023/07/23 14:08:54;;;;;;;;;;;;;;;5.59;100.00;99131.59;5013730;28;20316;-91
2023/07/23 14:11:19;;;;;;;;;;;;;;;5.61;100.00;99127.13;5013625;28;19922;-89
2023/07/23 14:13:44;;;;;;;;;;;;;;;5.59;100.00;99119.28;5012329;28;19940;-88
2023/07/23 14:16:10;;;;;;;;;;;;;;;5.64;100.00;99116.53;5012290;28;19929;-91
2023/07/23 14:18:35;;;;;;;;;;;;;;;5.66;100.00;99113.84;4995844;28;19921;-87
2023/07/23 14:21:00;;;;;;;;;;;;;;;5.68;100.00;99117.28;5012004;28;19929;-88
2023/07/23 14:23:26;;;;;;;;;;;;;;;5.68;100.00;99118.16;4994589;28;20411;-88
2023/07/23 14:25:51;;;;;;;;;;;;;;;5.62;100.00;99115.72;5011821;28;19922;-89
2023/07/23 14:28:16;;;;;;;;;;;;;;;5.73;100.00;99112.75;5014128;28;19921;-89
2023/07/23 14:30:41;;;;;;;;;;;;;;;5.69;100.00;99108.47;5032894;28;19960;-88
2023/07/23 14:33:07;;;;;;;;;;;;;;;5.74;100.00;99114.44;5014733;28;19917;-88
2023/07/23 14:35:34;;;;;;;;;;;;;;;5.70;100.00;99097.91;5033110;28;19924;-88
2023/07/23 14:37:59;;;;;;;;;;;;;;;5.77;100.00;99104.66;5031830;28;19928;-88
2023/07/23 14:43:20;;;;;;;;;;;;;;;5.75;100.00;99095.13;5019476;23;19936;-89
2023/07/23 14:45:46;;;;;;;;;;;;;;;5.74;100.00;99096.03;4995090;28;20084;-88
2023/07/23 14:48:24;;;;;;;;;;;;;;;;;;;;;
2023/07/23 14:50:49;;;;;;;;;;;;;;;5.82;100.00;99100.13;5012210;28;19929;-86
2023/07/23 14:53:15;;;;;;;;;;;;;;;5.80;100.00;99098.47;5011423;28;20012;-89
2023/07/23 14:55:40;;;;;;;;;;;;;;;5.83;100.00;99090.47;5012712;28;19961;-86
2023/07/23 14:58:05;;;;;;;;;;;;;;;5.84;100.00;99076.41;5012715;28;19924;-86
2023/07/23 15:00:30;;;;;;;;;;;;;;;5.79;100.00;99078.31;5012554;28;20372;-87
2023/07/23 15:06:00;;;;;;;;;;;;;;;5.84;100.00;99086.94;4974727;28;19972;-88
2023/07/23 15:08:25;;;;;;;;;;;;;;;5.81;100.00;99074.75;5011679;28;19917;-85
2023/07/23 15:10:50;;;;;;;;;;;;;;;5.80;100.00;99070.38;5012410;28;19921;-86
2023/07/23 15:13:16;;;;;;;;;;;;;;;5.78;100.00;99066.97;4994557;28;19921;-85
2023/07/23 15:15:41;;;;;;;;;;;;;;;9.94;100.00;99068.53;5012547;28;19921;-90
2023/07/23 15:18:06;;;;;;;;;;;;;;;6.82;100.00;99069.34;5010390;28;19925;-85
2023/07/23 15:20:32;;;;;;;;;;;;;;;6.25;100.00;99065.34;5012495;28;20376;-88
2023/07/23 15:22:57;;;;;;;;;;;;;;;6.09;100.00;99063.28;5010809;28;20353;-85
2023/07/23 15:25:26;;;;;;;;;;;;;;;6.02;100.00;99068.84;5012250;28;19960;-88
2023/07/23 15:27:53;;;;;;;;;;;;;;;5.96;100.00;99067.22;4994463;28;19913;-86
2023/07/23 15:30:18;;;;;;;;;;;;;;;5.95;100.00;99068.13;5010014;28;20364;-86
2023/07/23 15:32:44;;;;;;;;;;;;;;;5.92;100.00;99068.25;5009346;28;19928;-84
2023/07/23 15:35:09;;;;;;;;;;;;;;;5.93;100.00;99069.97;4992913;28;19969;-86
2023/07/23 15:37:34;;;;;;;;;;;;;;;5.92;100.00;99077.00;5009085;28;19925;-89
2023/07/23 15:40:00;;;;;;;;;;;;;;;5.88;100.00;99066.66;5010743;28;19924;-87
2023/07/23 15:42:25;;;;;;;;;;;;;;;5.87;100.00;99060.53;5006826;28;19929;-88
2023/07/23 15:44:50;;;;;;;;;;;;;;;5.86;100.00;99053.56;4992184;28;20004;-84
2023/07/23 15:47:16;;;;;;;;;;;;;;;5.86;100.00;99060.59;4993609;28;19972;-87
2023/07/23 15:49:41;;;;;;;;;;;;;;;5.86;100.00;99058.81;5008806;28;19929;-85
2023/07/23 15:52:18;;;;;;;;;;;;;;;5.85;100.00;99046.56;5010503;28;19926;-91
2023/07/23 15:54:44;;;;;;;;;;;;;;;5.85;100.00;99053.59;4992944;28;20295;-87
2023/07/23 15:57:09;;;;;;;;;;;;;;;5.87;100.00;99054.41;5011235;28;19928;-84
2023/07/23 15:59:34;;;;;;;;;;;;;;;5.87;100.00;99041.25;5011449;28;20332;-85
2023/07/23 16:02:29;;;;;;;;;;;;;;;5.89;100.00;99048.19;4993568;28;19921;-87
2023/07/23 16:04:54;;;;;;;;;;;;;;;5.86;100.00;99057.97;4973439;28;19921;-87
2023/07/23 16:10:22;;;;;;;;;;;;;;;5.84;100.00;99039.63;5011618;28;19963;-88
2023/07/23 16:18:18;;;;;;;;;;;;;;;5.86;100.00;99052.72;5031872;28;19926;-88
2023/07/23 16:26:40;;;;;;;;;;;;;;;5.93;100.00;99043.66;5826968;23;19965;-87
2023/07/23 16:29:06;;;;;;;;;;;;;;;5.92;100.00;99048.09;4997634;28;19968;-87
2023/07/23 16:31:34;;;;;;;;;;;;;;;5.94;100.00;99048.03;5015652;28;19917;-89
2023/07/23 16:33:59;;;;;;;;;;;;;;;5.93;100.00;99044.53;5015588;28;19964;-88
2023/07/23 16:36:26;;;;;;;;;;;;;;;5.96;100.00;99044.44;4996533;28;19972;-86
2023/07/23 16:38:52;;;;;;;;;;;;;;;5.89;100.00;99044.69;5015303;28;19924;-88
2023/07/23 16:41:17;;;;;;;;;;;;;;;5.95;100.00;99037.44;5570332;23;20016;-87
2023/07/23 16:43:44;;;;;;;;;;;;;;;5.94;100.00;99034.88;5025240;28;20407;-87
2023/07/23 16:46:09;;;;;;;;;;;;;;;5.97;100.00;99032.19;5035270;28;20084;-88
2023/07/23 16:48:34;;;;;;;;;;;;;;;5.94;100.00;99029.63;5035100;28;20382;-86
2023/07/23 16:54:07;;;;;;;;;;;;;;;5.96;100.00;99018.16;4963995;28;19986;-88
2023/07/23 16:56:32;;;;;;;;;;;;;;;5.95;100.00;99016.41;5019458;28;19939;-89
2023/07/23 16:58:57;;;;;;;;;;;;;;;5.93;100.00;99012.13;5034969;28;20417;-88
2023/07/23 17:01:23;;;;;;;;;;;;;;;5.92;100.00;99008.63;5034826;28;19917;-88
2023/07/23 17:03:48;;;;;;;;;;;;;;;5.96;100.00;99012.00;5034803;28;19963;-89
2023/07/23 17:06:13;;;;;;;;;;;;;;;5.96;100.00;99010.25;5033228;28;19924;-89
2023/07/23 17:08:38;;;;;;;;;;;;;;;5.95;100.00;99003.28;5034641;28;19960;-89
2023/07/23 17:11:27;;;;;;;;;;;;;;;5.94;100.00;98998.91;5034496;28;19921;-89
2023/07/23 17:13:52;;;;;;;;;;;;;;;5.98;100.00;99002.31;5022716;28;20386;-84
2023/07/23 17:16:18;;;;;;;;;;;;;;;5.96;100.00;98994.47;5016960;28;20380;-88
2023/07/23 17:18:43;;;;;;;;;;;;;;;5.98;100.00;98987.41;5034398;28;19920;-87
2023/07/23 17:21:08;;;;;;;;;;;;;;;5.99;100.00;98990.88;5033863;28;20371;-88
2023/07/23 17:23:34;;;;;;;;;;;;;;;5.96;100.00;98985.72;5033553;28;19944;-87
2023/07/23 17:26:00;;;;;;;;;;;;;;;5.96;100.00;98986.59;5034293;28;19963;-87
2023/07/23 17:28:25;;;;;;;;;;;;;;;5.96;100.00;98986.59;5015571;28;19960;-87
2023/07/23 17:30:55;;;;;;;;;;;;;;;5.94;100.00;98983.13;5034195;28;19928;-88
2023/07/23 17:33:20;;;;;;;;;;;;;;;5.98;100.00;98983.91;5033738;28;19918;-88
2023/07/23 17:35:45;;;;;;;;;;;;;;;5.98;100.00;98976.91;5016289;28;19917;-90
2023/07/23 17:38:10;;;;;;;;;;;;;;;5.97;100.00;98979.59;5014972;28;19917;-87
2023/07/23 17:40:36;;;;;;;;;;;;;;;5.99;100.00;98970.69;5016192;28;20436;-88
2023/07/23 17:43:01;;;;;;;;;;;;;;;6.00;100.00;98976.84;5033789;28;19932;-88
2023/07/23 17:45:26;;;;;;;;;;;;;;;5.97;100.00;98964.66;5016221;28;19924;-90
2023/07/23 17:47:51;;;;;;;;;;;;;;;5.98;100.00;98958.50;5016266;28;19992;-89
2023/07/23 17:50:23;;;;;;;;;;;;;;;6.00;100.00;98951.38;5018099;28;19921;-91
2023/07/23 17:52:48;;;;;;;;;;;;;;;5.95;100.00;98955.94;5013827;28;19956;-88
2023/07/23 17:55:14;;;;;;;;;;;;;;;6.02;100.00;98956.59;5032254;28;20787;-86
2023/07/23 17:57:39;;;;;;;;;;;;;;;6.00;100.00;98959.28;5031457;28;19920;-87
2023/07/23 18:00:05;;;;;;;;;;;;;;;6.00;100.00;98956.66;5031783;28;19925;-90
2023/07/23 18:02:33;;;;;;;;;;;;;;;6.01;100.00;98957.50;5031459;28;19928;-89
2023/07/23 18:04:58;;;;;;;;;;;;;;;6.00;100.00;98961.06;5014691;28;19933;-90
2023/07/23 18:07:23;;;;;;;;;;;;;;;5.98;100.00;98958.50;5032572;28;19971;-89
2023/07/23 18:09:48;;;;;;;;;;;;;;;6.03;100.00;98960.06;5033492;28;20360;-87
2023/07/23 18:12:14;;;;;;;;;;;;;;;6.01;100.00;98957.50;5033550;28;20360;-86
2023/07/23 18:14:39;;;;;;;;;;;;;;;6.02;100.00;98953.97;5014879;28;20379;-87
2023/07/23 18:17:06;;;;;;;;;;;;;;;6.05;100.00;98952.97;5014630;28;19929;-87
2023/07/23 18:19:32;;;;;;;;;;;;;;;6.04;100.00;98953.91;5014731;28;19966;-90
2023/07/23 18:21:57;;;;;;;;;;;;;;;6.03;100.00;98947.81;5027028;28;19933;-88
2023/07/23 18:24:22;;;;;;;;;;;;;;;5.99;100.00;98949.66;5014359;28;19925;-87
2023/07/23 18:26:48;;;;;;;;;;;;;;;6.02;100.00;98956.59;5032040;28;19921;-88
2023/07/23 18:29:13;;;;;;;;;;;;;;;6.00;100.00;98953.16;5011899;28;19925;-87
2023/07/23 18:31:38;;;;;;;;;;;;;;;6.01;100.00;98952.22;5032400;28;19987;-88
2023/07/23 18:34:05;;;;;;;;;;;;;;;6.03;100.00;98949.56;5031297;28;19928;-88
2023/07/23 18:36:30;;;;;;;;;;;;;;;6.02;100.00;98953.97;5012383;28;19936;-89
2023/07/23 18:38:55;;;;;;;;;;;;;;;6.02;100.00;98953.13;5012817;28;19921;-87
2023/07/23 18:41:27;;;;;;;;;;;;;;;5.98;100.00;98955.84;5012431;28;19921;-87
2023/07/23 18:43:54;;;;;;;;;;;;;;;6.02;100.00;98953.13;5030194;28;19979;-88
2023/07/23 18:46:19;;;;;;;;;;;;;;;6.04;100.00;98960.00;5030766;28;19948;-89
2023/07/23 18:48:44;;;;;;;;;;;;;;;6.06;100.00;98957.31;5013769;28;19968;-88
2023/07/23 18:51:09;;;;;;;;;;;;;;;6.03;100.00;98949.56;5031106;28;19925;-88
2023/07/23 18:53:36;;;;;;;;;;;;;;;6.02;100.00;98959.22;5009580;28;20039;-88
2023/07/23 18:56:01;;;;;;;;;;;;;;;6.01;100.00;98960.13;5029148;28;19940;-87
2023/07/23 18:58:27;;;;;;;;;;;;;;;5.98;100.00;98961.13;5011324;28;19925;-87
2023/07/23 19:00:52;;;;;;;;;;;;;;;6.05;100.00;98958.22;5011513;28;19928;-87
2023/07/23 19:03:17;;;;;;;;;;;;;;;6.02;100.00;98953.13;5028063;28;19925;-88
2023/07/23 19:05:43;;;;;;;;;;;;;;;6.02;100.00;98946.06;5013220;28;20364;-87
2023/07/23 19:08:09;;;;;;;;;;;;;;;6.04;100.00;98948.66;5011636;28;19925;-87
2023/07/23 19:10:34;;;;;;;;;;;;;;;6.06;100.00;98950.28;5011880;28;19928;-88
2023/07/23 19:12:59;;;;;;;;;;;;;;;6.06;100.00;98938.91;5012230;28;20360;-87
2023/07/23 19:15:26;;;;;;;;;;;;;;;6.07;100.00;98943.28;5013431;28;20328;-88
2023/07/23 19:17:51;;;;;;;;;;;;;;;6.08;100.00;98931.81;5031581;28;19925;-89
2023/07/23 19:20:16;;;;;;;;;;;;;;;6.01;100.00;98931.19;5011760;28;20380;-89
2023/07/23 19:22:42;;;;;;;;;;;;;;;6.05;100.00;98931.94;5024264;28;20459;-87
2023/07/23 19:25:07;;;;;;;;;;;;;;;6.09;100.00;98925.66;5030592;28;19928;-88
2023/07/23 19:27:33;;;;;;;;;;;;;;;6.09;100.00;98928.28;5031230;28;20427;-83
2023/07/23 19:29:58;;;;;;;;;;;;;;;6.06;100.00;98929.25;5030984;28;19921;-87
2023/07/23 19:32:23;;;;;;;;;;;;;;;6.07;100.00;98933.59;5031798;28;19917;-87
2023/07/23 19:34:49;;;;;;;;;;;;;;;6.07;100.00;98930.13;5031828;28;19917;-87
2023/07/23 19:37:15;;;;;;;;;;;;;;;6.09;100.00;98934.38;5030607;28;20288;-87
2023/07/23 19:39:41;;;;;;;;;;;;;;;6.10;100.00;98932.63;5032098;28;19960;-86
2023/07/23 19:42:07;;;;;;;;;;;;;;;6.09;100.00;98931.75;5013210;28;19936;-86
2023/07/23 19:44:32;;;;;;;;;;;;;;;6.14;100.00;98928.97;5032519;28;19928;-87
2023/07/23 19:46:57;;;;;;;;;;;;;;;6.06;100.00;98931.03;5032039;28;20000;-88
2023/07/23 19:49:22;;;;;;;;;;;;;;;6.07;100.00;98932.75;5030679;28;19956;-88
2023/07/23 19:51:48;;;;;;;;;;;;;;;6.06;100.00;98938.91;5036271;28;20414;-87
2023/07/23 19:54:13;;;;;;;;;;;;;;;6.05;100.00;98937.19;5035363;28;20368;-88
2023/07/23 19:56:38;;;;;;;;;;;;;;;6.02;100.00;98938.19;5035622;28;20380;-87
2023/07/23 19:59:03;;;;;;;;;;;;;;;6.05;100.00;98937.19;5020490;28;20287;-87
2023/07/23 20:01:28;;;;;;;;;;;;;;;6.06;100.00;98938.91;5036546;28;20257;-88
2023/07/23 20:03:54;;;;;;;;;;;;;;;6.06;100.00;98938.91;5020167;28;19921;-87
2023/07/23 20:06:19;;;;;;;;;;;;;;;6.07;100.00;98938.00;5017334;28;20011;-87
2023/07/23 20:08:44;;;;;;;;;;;;;;;6.03;100.00;98933.78;5036453;28;19932;-89
2023/07/23 20:11:11;;;;;;;;;;;;;;;6.03;100.00;98939.03;5037618;28;19928;-87
2023/07/23 20:13:36;;;;;;;;;;;;;;;6.03;100.00;98939.03;5020489;28;19932;-87
2023/07/23 20:16:01;;;;;;;;;;;;;;;6.01;100.00;98944.34;5018934;28;19929;-87
2023/07/23 20:18:27;;;;;;;;;;;;;;;6.04;100.00;98941.59;5037344;28;19933;-88
2023/07/23 20:20:52;;;;;;;;;;;;;;;6.02;100.00;98946.06;5018940;28;19921;-87
2023/07/23 20:23:18;;;;;;;;;;;;;;;5.99;100.00;98941.78;5017830;28;19949;-88
2023/07/23 20:25:50;;;;;;;;;;;;;;;6.02;100.00;98935.56;5019452;28;19921;-87
2023/07/23 20:28:16;;;;;;;;;;;;;;;6.05;100.00;98937.19;5036877;28;19929;-88
2023/07/23 20:30:42;;;;;;;;;;;;;;;6.07;100.00;98940.66;5033838;28;20438;-89
2023/07/23 20:33:07;;;;;;;;;;;;;;;6.05;100.00;98939.81;5018639;28;19925;-88
2023/07/23 20:35:32;;;;;;;;;;;;;;;6.02;100.00;98934.72;5017865;28;20295;-88
2023/07/23 20:37:58;;;;;;;;;;;;;;;6.06;100.00;98928.41;5035321;28;19933;-89
2023/07/23 20:40:23;;;;;;;;;;;;;;;6.07;100.00;98924.84;5011319;28;19964;-87
2023/07/23 20:42:48;;;;;;;;;;;;;;;6.06;100.00;98931.03;5015978;28;19925;-87
2023/07/23 20:45:14;;;;;;;;;;;;;;;6.04;100.00;98930.25;5019733;28;19928;-87
2023/07/23 20:47:39;;;;;;;;;;;;;;;6.05;100.00;98931.94;5020181;28;19921;-87
2023/07/23 20:50:04;;;;;;;;;;;;;;;6.06;100.00;98933.66;5020143;28;19928;-88
2023/07/23 20:52:30;;;;;;;;;;;;;;;6.06;100.00;98931.88;5036518;28;20356;-87
2023/07/23 20:54:55;;;;;;;;;;;;;;;6.07;100.00;98927.50;5020150;28;19917;-88
2023/07/23 20:57:20;;;;;;;;;;;;;;;6.07;100.00;98930.97;5018272;28;19921;-88
2023/07/23 20:59:45;;;;;;;;;;;;;;;6.09;100.00;98928.28;5035114;28;20015;-86
2023/07/23 21:02:11;;;;;;;;;;;;;;;6.08;100.00;98927.44;5035952;28;19924;-86
2023/07/23 21:04:36;;;;;;;;;;;;;;;6.08;100.00;98935.31;5033069;28;19925;-86
2023/07/23 21:07:02;;;;;;;;;;;;;;;6.07;100.00;98930.97;5014802;28;20399;-87
2023/07/23 21:09:27;;;;;;;;;;;;;;;6.10;100.00;98932.63;5015975;28;20372;-88
2023/07/23 21:11:52;;;;;;;;;;;;;;;6.07;100.00;98924.84;5016739;28;19917;-86
2023/07/23 21:14:17;;;;;;;;;;;;;;;6.04;100.00;98924.97;5033064;28;19925;-85
2023/07/23 21:16:43;;;;;;;;;;;;;;;6.04;100.00;98915.31;5015298;28;19932;-88
2023/07/23 21:19:08;;;;;;;;;;;;;;;6.03;100.00;98923.25;5016713;28;19917;-87
2023/07/23 21:21:33;;;;;;;;;;;;;;;6.02;100.00;98916.28;5015404;28;20677;-91
2023/07/23 21:23:58;;;;;;;;;;;;;;;6.06;100.00;98923.13;5016822;28;19948;-86
2023/07/23 21:26:24;;;;;;;;;;;;;;;6.00;100.00;98916.34;5031818;28;19921;-89
2023/07/23 21:28:49;;;;;;;;;;;;;;;6.06;100.00;98918.72;5013814;28;19921;-87
2023/07/23 21:31:14;;;;;;;;;;;;;;;6.05;100.00;98910.88;5015951;28;20403;-89
2023/07/23 21:33:39;;;;;;;;;;;;;;;6.09;100.00;98912.50;5034422;28;20273;-90
2023/07/23 21:36:05;;;;;;;;;;;;;;;6.06;100.00;98916.09;5032892;28;19921;-89
2023/07/23 21:38:30;;;;;;;;;;;;;;;6.00;100.00;98914.56;5033214;28;19963;-90
2023/07/23 21:40:55;;;;;;;;;;;;;;;5.99;100.00;98899.69;5015588;28;19921;-86
2023/07/23 21:43:21;;;;;;;;;;;;;;;5.98;100.00;98892.75;5033239;28;19936;-84
2023/07/23 21:45:46;;;;;;;;;;;;;;;5.98;100.00;98900.63;5032124;28;19933;-88
2023/07/23 21:48:12;;;;;;;;;;;;;;;6.03;100.00;98910.09;5032798;28;19929;-89
2023/07/23 21:50:39;;;;;;;;;;;;;;;5.96;100.00;98912.97;5032895;28;20383;-89
2023/07/23 21:53:04;;;;;;;;;;;;;;;5.97;100.00;98906.78;5032564;28;19978;-89
2023/07/23 21:55:30;;;;;;;;;;;;;;;5.92;100.00;98916.59;5033848;28;20476;-89
2023/07/23 21:57:56;;;;;;;;;;;;;;;5.95;100.00;98911.22;5015972;28;19917;-91
2023/07/23 22:00:21;;;;;;;;;;;;;;;5.99;100.00;98898.84;5014044;28;19929;-88
